Time;durP1;ratioP1;P1;durP2;ratioP2;P2;SDS_P1;SDS_P2;PMS_P1;PMS_P2;Temp;Humidity;BMP_temperature;BMP_pressure;BME280_temperature;BME280_humidity;BME280_pressure;Samples;Min_cycle;Max_cycle;Signal;HPM_P1;HPM_P2
2023/05/23 00:02:54;;;;;;;;;;;;;;;16.34;95.49;99305.97;3050055;22;20165;-84
2023/05/23 00:03:04;;;;;;;;;;;;;;;16.33;95.61;99301.66;432876;22;1376;-84
2023/05/23 00:03:14;;;;;;;;;;;;;;;16.33;95.60;99299.00;430713;23;1359;-84
2023/05/23 00:03:25;;;;;;;;;;;;;;;16.33;95.44;99304.28;428735;23;1201;-84
2023/05/23 00:03:36;;;;;;;;;;;;;;;16.33;95.54;99304.28;428804;23;1281;-84
2023/05/23 00:03:48;;;;;;;;;;;;;;;16.32;95.51;99297.31;424863;23;1195;-85
2023/05/23 00:03:58;;;;;;;;;;;;;;;16.32;95.62;99297.31;422819;23;1351;-84
2023/05/23 00:04:09;;;;;;;;;;;;;;;16.32;95.58;99299.97;424965;23;1377;-84
2023/05/23 00:04:19;;;;;;;;;;;;;;;16.30;95.64;99298.28;425038;23;1381;-85
2023/05/23 00:04:29;;;;;;;;;;;;;;;16.31;95.47;99301.75;426963;23;1164;-83
2023/05/23 00:04:40;;;;;;;;;;;;;;;16.32;95.44;99305.25;427395;23;1212;-83
2023/05/23 00:04:51;;;;;;;;;;;;;;;16.30;95.50;99300.91;424539;23;1283;-83
2023/05/23 00:05:02;;;;;;;;;;;;;;;16.30;95.57;99300.06;424597;23;1662;-85
2023/05/23 00:05:14;;;;;;;;;;;;;;;16.28;95.52;99300.16;426390;23;1327;-84
2023/05/23 00:05:25;;;;;;;;;;;;;;;16.29;95.71;99304.50;424517;23;1251;-84
2023/05/23 00:05:35;;;;;;;;;;;;;;;16.28;95.81;99300.16;420409;23;1327;-84
2023/05/23 00:05:46;;;;;;;;;;;;;;;16.27;95.94;99301.13;424539;23;1101;-84
2023/05/23 00:05:57;;;;;;;;;;;;;;;16.27;95.94;99295.84;426588;23;796;-84
2023/05/23 00:06:07;;;;;;;;;;;;;;;16.29;95.81;99303.66;426719;23;1258;-84
2023/05/23 00:06:20;;;;;;;;;;;;;;;16.29;95.85;99301.88;426807;23;781;-84
2023/05/23 00:06:31;;;;;;;;;;;;;;;16.28;95.78;99301.97;422581;23;1320;-84
2023/05/23 00:06:45;;;;;;;;;;;;;;;16.28;95.81;99302.81;424422;23;1254;-84
2023/05/23 00:06:55;;;;;;;;;;;;;;;16.29;95.93;99299.22;425068;23;1281;-85
2023/05/23 00:07:06;;;;;;;;;;;;;;;16.27;95.70;99292.34;426561;23;1290;-84
2023/05/23 00:07:16;;;;;;;;;;;;;;;16.26;96.01;99299.44;425443;23;1208;-84
2023/05/23 00:07:26;;;;;;;;;;;;;;;16.26;95.96;99299.44;422313;23;1185;-84
2023/05/23 00:07:37;;;;;;;;;;;;;;;16.25;95.88;99297.75;420405;23;1268;-84
2023/05/23 00:07:47;;;;;;;;;;;;;;;16.24;96.12;99296.06;420460;23;1161;-84
2023/05/23 00:07:57;;;;;;;;;;;;;;;16.24;96.24;99306.63;422632;23;1274;-84
2023/05/23 00:08:07;;;;;;;;;;;;;;;16.24;96.20;99300.50;419009;23;1191;-84
2023/05/23 00:08:18;;;;;;;;;;;;;;;16.23;96.15;99299.66;420607;23;777;-84
2023/05/23 00:08:28;;;;;;;;;;;;;;;16.23;96.23;99293.50;422427;23;819;-84
2023/05/23 00:08:38;;;;;;;;;;;;;;;16.23;96.32;99298.78;420656;23;844;-84
2023/05/23 00:08:49;;;;;;;;;;;;;;;16.23;96.35;99298.78;420417;23;1145;-83
2023/05/23 00:08:59;;;;;;;;;;;;;;;16.21;96.33;99293.63;422425;23;1217;-85
2023/05/23 00:09:10;;;;;;;;;;;;;;;16.23;96.34;99298.78;418421;23;1268;-84
2023/05/23 00:09:20;;;;;;;;;;;;;;;16.21;96.17;99296.25;414584;23;1286;-84
2023/05/23 00:09:30;;;;;;;;;;;;;;;16.23;96.20;99296.16;420110;23;1088;-84
2023/05/23 00:09:40;;;;;;;;;;;;;;;16.20;96.40;99297.22;418919;23;1328;-85
2023/05/23 00:09:50;;;;;;;;;;;;;;;16.20;96.36;99294.56;418040;23;1200;-85
2023/05/23 00:10:01;;;;;;;;;;;;;;;16.20;96.27;99301.66;416489;23;1267;-84
2023/05/23 00:10:12;;;;;;;;;;;;;;;16.19;96.29;99297.31;415358;23;1351;-84
2023/05/23 00:10:22;;;;;;;;;;;;;;;16.19;96.40;99298.16;416717;23;707;-85
2023/05/23 00:10:32;;;;;;;;;;;;;;;16.18;96.56;99291.19;416460;23;1167;-85
2023/05/23 00:10:43;;;;;;;;;;;;;;;16.18;96.44;99296.47;418650;23;904;-85
2023/05/23 00:10:53;;;;;;;;;;;;;;;16.17;96.50;99300.06;418862;23;923;-84
2023/05/23 00:11:03;;;;;;;;;;;;;;;16.18;96.38;99300.91;420406;23;1300;-84
2023/05/23 00:11:13;;;;;;;;;;;;;;;16.17;96.43;99300.06;420208;23;1339;-84
2023/05/23 00:11:26;;;;;;;;;;;;;;;16.17;96.42;99294.78;415459;23;1397;-84
2023/05/23 00:11:36;;;;;;;;;;;;;;;16.13;96.55;99293.31;414546;23;1367;-84
2023/05/23 00:11:46;;;;;;;;;;;;;;;16.13;96.59;99301.22;406659;23;1272;-84
2023/05/23 00:11:56;;;;;;;;;;;;;;;16.13;96.53;99293.31;409520;23;1583;-84
2023/05/23 00:12:07;;;;;;;;;;;;;;;16.12;96.65;99298.69;408788;24;1315;-85
2023/05/23 00:12:18;;;;;;;;;;;;;;;16.12;96.47;99296.88;405500;24;1165;-85
2023/05/23 00:12:28;;;;;;;;;;;;;;;16.11;96.74;99297.84;409074;24;1207;-85
2023/05/23 00:12:41;;;;;;;;;;;;;;;16.09;96.75;99297.09;407187;24;1055;-87
2023/05/23 00:12:52;;;;;;;;;;;;;;;16.08;96.68;99300.69;403208;24;1247;-84
2023/05/23 00:13:02;;;;;;;;;;;;;;;16.08;96.55;99298.03;399684;24;824;-84
2023/05/23 00:13:13;;;;;;;;;;;;;;;16.08;96.66;99295.41;398500;24;1240;-85
2023/05/23 00:13:23;;;;;;;;;;;;;;;16.04;96.73;99299.19;396760;24;1519;-84
2023/05/23 00:13:34;;;;;;;;;;;;;;;16.01;96.88;99299.44;395810;25;795;-84
2023/05/23 00:13:45;;;;;;;;;;;;;;;16.00;97.00;99291.63;393589;24;1689;-84
2023/05/23 00:13:56;;;;;;;;;;;;;;;15.98;97.20;99299.66;390308;25;1921;-84
2023/05/23 00:14:07;;;;;;;;;;;;;;;15.99;97.03;99295.22;392373;25;1329;-85
2023/05/23 00:14:17;;;;;;;;;;;;;;;15.99;97.10;99296.06;389209;25;1342;-84
2023/05/23 00:14:32;;;;;;;;;;;;;;;15.99;97.03;99296.06;388858;25;1642;-84
2023/05/23 00:14:42;;;;;;;;;;;;;;;16.00;97.13;99299.56;389403;25;879;-84
2023/05/23 00:14:53;;;;;;;;;;;;;;;16.01;96.97;99299.44;390440;25;1211;-86
2023/05/23 00:15:03;;;;;;;;;;;;;;;16.00;96.94;99297.75;391689;25;1223;-86
2023/05/23 00:15:13;;;;;;;;;;;;;;;16.01;97.06;99299.44;388159;25;1390;-84
2023/05/23 00:15:24;;;;;;;;;;;;;;;16.00;96.93;99297.75;384233;25;1695;-84
2023/05/23 00:15:37;;;;;;;;;;;;;;;16.00;96.90;99295.13;383906;25;1223;-85
2023/05/23 00:15:47;;;;;;;;;;;;;;;16.01;96.80;99299.44;388817;25;1281;-84
2023/05/23 00:15:58;;;;;;;;;;;;;;;16.00;96.69;99292.47;384895;25;2223;-84
2023/05/23 00:16:11;;;;;;;;;;;;;;;16.00;96.78;99297.75;386881;25;2177;-84
2023/05/23 00:16:21;;;;;;;;;;;;;;;16.01;96.88;99296.81;385950;25;1405;-84
2023/05/23 00:16:32;;;;;;;;;;;;;;;16.01;96.71;99302.09;380452;25;1193;-84
2023/05/23 00:16:43;;;;;;;;;;;;;;;16.01;96.66;99290.69;383704;25;1792;-84
2023/05/23 00:16:53;;;;;;;;;;;;;;;16.01;96.83;99298.59;382336;25;932;-85
2023/05/23 00:17:04;;;;;;;;;;;;;;;16.00;96.72;99303.03;383865;25;1273;-85
2023/05/23 00:17:16;;;;;;;;;;;;;;;15.98;96.78;99298.81;383417;25;1402;-85
2023/05/23 00:17:26;;;;;;;;;;;;;;;15.96;96.75;99298.91;380887;25;1722;-85
2023/05/23 00:17:37;;;;;;;;;;;;;;;15.96;96.80;99296.28;376480;26;2243;-85
2023/05/23 00:17:47;;;;;;;;;;;;;;;15.97;96.83;99297.97;370359;26;1312;-84
2023/05/23 00:17:58;;;;;;;;;;;;;;;15.96;96.79;99296.28;374763;26;2816;-84
2023/05/23 00:18:12;;;;;;;;;;;;;;;15.94;96.73;99303.44;378210;25;3426;-85
2023/05/23 00:18:23;;;;;;;;;;;;;;;15.94;96.89;99298.16;379766;26;2058;-85
2023/05/23 00:18:36;;;;;;;;;;;;;;;15.94;96.93;99298.16;379252;26;1266;-85
2023/05/23 00:18:49;;;;;;;;;;;;;;;15.95;96.97;99294.59;377183;26;1266;-85
2023/05/23 00:19:00;;;;;;;;;;;;;;;15.95;96.95;99299.84;374199;26;2259;-85
2023/05/23 00:19:10;;;;;;;;;;;;;;;15.96;97.00;99296.28;375057;26;1677;-85
2023/05/23 00:19:21;;;;;;;;;;;;;;;15.94;96.66;99298.16;372485;26;930;-85
2023/05/23 00:19:35;;;;;;;;;;;;;;;15.92;96.92;99295.63;369429;26;1443;-85
2023/05/23 00:19:45;;;;;;;;;;;;;;;15.93;97.03;99301.75;363873;26;2476;-85
2023/05/23 00:19:55;;;;;;;;;;;;;;;15.93;96.73;99294.69;363784;26;3381;-85
2023/05/23 00:20:08;;;;;;;;;;;;;;;15.93;97.05;99304.41;366249;27;1216;-85
2023/05/23 00:20:20;;;;;;;;;;;;;;;15.95;96.91;99299.84;363542;27;796;-85
2023/05/23 00:20:30;;;;;;;;;;;;;;;15.95;96.79;99299.84;361447;27;4024;-85
2023/05/23 00:20:44;;;;;;;;;;;;;;;15.95;96.82;99297.22;359038;27;3192;-85
2023/05/23 00:20:56;;;;;;;;;;;;;;;15.93;97.04;99299.97;357854;27;3486;-85
2023/05/23 00:21:06;;;;;;;;;;;;;;;15.94;96.70;99299.00;354477;27;1265;-85
2023/05/23 00:21:16;;;;;;;;;;;;;;;15.94;96.88;99300.81;360203;27;1968;-85
2023/05/23 00:21:29;;;;;;;;;;;;;;;15.93;96.86;99301.75;355742;27;1821;-85
2023/05/23 00:21:40;;;;;;;;;;;;;;;15.93;96.62;99307.03;352090;27;2481;-85
2023/05/23 00:21:52;;;;;;;;;;;;;;;15.94;96.86;99300.81;351714;28;811;-85
2023/05/23 00:22:03;;;;;;;;;;;;;;;15.96;96.79;99304.19;347482;28;1297;-85
2023/05/23 00:22:15;;;;;;;;;;;;;;;15.95;96.68;99297.22;347249;28;4547;-85
2023/05/23 00:22:25;;;;;;;;;;;;;;;15.96;96.56;99298.91;342227;28;5491;-85
2023/05/23 00:22:38;;;;;;;;;;;;;;;15.95;96.65;99298.06;339560;29;820;-85
2023/05/23 00:22:48;;;;;;;;;;;;;;;15.95;96.57;99299.84;337043;29;824;-85
2023/05/23 00:22:59;;;;;;;;;;;;;;;15.94;96.62;99303.44;328569;29;4939;-85
2023/05/23 00:23:09;;;;;;;;;;;;;;;15.95;96.62;99299.84;326562;29;5068;-85
2023/05/23 00:23:21;;;;;;;;;;;;;;;15.94;96.67;99298.16;326960;30;1230;-85
2023/05/23 00:23:32;;;;;;;;;;;;;;;15.94;96.64;99295.53;326828;30;4771;-85
2023/05/23 00:23:42;;;;;;;;;;;;;;;15.92;96.54;99302.69;323871;30;3445;-85
2023/05/23 00:23:53;;;;;;;;;;;;;;;15.89;96.64;99301.13;318830;30;4552;-85
2023/05/23 00:24:03;;;;;;;;;;;;;;;15.89;96.92;99295.00;317411;31;1258;-85
2023/05/23 00:24:17;;;;;;;;;;;;;;;15.89;96.83;99301.13;317086;31;5130;-86
2023/05/23 00:24:27;;;;;;;;;;;;;;;15.89;96.89;99292.34;314091;31;6641;-85
2023/05/23 00:24:37;;;;;;;;;;;;;;;15.91;96.78;99301.88;311517;31;7797;-85
2023/05/23 00:24:48;;;;;;;;;;;;;;;15.86;96.52;99289.91;312958;31;1227;-85
2023/05/23 00:25:00;;;;;;;;;;;;;;;15.88;96.55;99296.78;312656;31;8395;-85
2023/05/23 00:27:29;;;;;;;;;;;;;;;15.99;96.34;99296.06;2502584;27;19944;-84
2023/05/23 00:27:39;;;;;;;;;;;;;;;15.98;96.31;99299.66;356387;27;1079;-86
2023/05/23 00:27:50;;;;;;;;;;;;;;;15.99;96.33;99296.06;352447;28;1224;-84
2023/05/23 00:28:00;;;;;;;;;;;;;;;15.99;96.16;99290.78;350614;28;1215;-85
2023/05/23 00:28:10;;;;;;;;;;;;;;;15.99;96.42;99290.78;349127;28;1303;-85
2023/05/23 00:28:21;;;;;;;;;;;;;;;15.99;96.31;99296.06;350051;28;1868;-84
2023/05/23 00:28:31;;;;;;;;;;;;;;;15.99;96.27;99292.59;348952;28;1439;-84
2023/05/23 00:28:41;;;;;;;;;;;;;;;15.97;96.46;99287.41;349076;28;1504;-84
2023/05/23 00:28:51;;;;;;;;;;;;;;;15.98;96.41;99296.16;349267;28;1324;-84
2023/05/23 00:29:02;;;;;;;;;;;;;;;15.98;96.20;99289.09;349119;28;1397;-85
2023/05/23 00:29:15;;;;;;;;;;;;;;;15.98;96.06;99294.38;350268;28;1209;-84
2023/05/23 00:29:25;;;;;;;;;;;;;;;15.93;95.99;99280.66;351900;28;1381;-84
2023/05/23 00:29:35;;;;;;;;;;;;;;;15.98;96.17;99291.72;350975;28;1366;-85
2023/05/23 00:29:46;;;;;;;;;;;;;;;15.97;96.10;99287.41;352241;28;1289;-85
2023/05/23 00:29:56;;;;;;;;;;;;;;;15.94;96.24;99288.47;349078;28;1294;-85
2023/05/23 00:30:07;;;;;;;;;;;;;;;15.94;96.31;99290.25;349824;28;1363;-84
2023/05/23 00:30:18;;;;;;;;;;;;;;;15.95;96.23;99294.59;348797;28;1407;-86
2023/05/23 00:30:31;;;;;;;;;;;;;;;15.94;96.40;99287.59;349318;28;1267;-85
2023/05/23 00:30:41;;;;;;;;;;;;;;;15.96;96.27;99291.00;349505;28;1370;-85
2023/05/23 00:30:51;;;;;;;;;;;;;;;15.95;96.33;99294.59;349598;28;844;-85
2023/05/23 00:31:02;;;;;;;;;;;;;;;15.94;96.36;99288.47;349977;28;1203;-85
2023/05/23 00:31:12;;;;;;;;;;;;;;;15.93;96.43;99292.03;350279;28;1227;-84
2023/05/23 00:31:22;;;;;;;;;;;;;;;15.94;96.40;99287.59;351949;28;1256;-85
2023/05/23 00:31:32;;;;;;;;;;;;;;;15.93;96.37;99285.91;349108;28;1379;-84
2023/05/23 00:31:45;;;;;;;;;;;;;;;15.93;96.34;99283.28;347722;28;1302;-84
2023/05/23 00:31:55;;;;;;;;;;;;;;;15.94;96.48;99287.59;350049;28;1223;-84
2023/05/23 00:32:05;;;;;;;;;;;;;;;15.94;96.30;99287.59;347820;28;1207;-85
2023/05/23 00:32:15;;;;;;;;;;;;;;;15.94;96.38;99288.47;344922;28;1203;-84
2023/05/23 00:32:26;;;;;;;;;;;;;;;15.94;96.43;99288.47;346455;28;1227;-84
2023/05/23 00:32:36;;;;;;;;;;;;;;;15.94;96.48;99290.25;347825;28;1188;-84
2023/05/23 00:32:46;;;;;;;;;;;;;;;15.94;96.40;99287.59;347807;28;1349;-85
2023/05/23 00:32:57;;;;;;;;;;;;;;;15.94;96.28;99291.09;343888;28;2757;-85
2023/05/23 00:33:08;;;;;;;;;;;;;;;15.95;96.23;99287.50;345882;28;2822;-84
2023/05/23 00:33:20;;;;;;;;;;;;;;;15.95;96.37;99289.31;345049;28;3292;-85
2023/05/23 00:33:32;;;;;;;;;;;;;;;15.93;96.39;99289.41;346997;28;1389;-84
2023/05/23 00:33:42;;;;;;;;;;;;;;;15.93;96.45;99285.91;348033;28;1266;-84
2023/05/23 00:33:52;;;;;;;;;;;;;;;15.93;96.41;99296.47;346850;28;1298;-84
2023/05/23 00:34:02;;;;;;;;;;;;;;;15.93;96.16;99286.75;346267;28;1318;-84
2023/05/23 00:34:13;;;;;;;;;;;;;;;15.94;96.46;99284.97;341655;28;1542;-84
2023/05/23 00:34:23;;;;;;;;;;;;;;;15.94;96.29;99287.59;343421;28;1303;-84
2023/05/23 00:34:33;;;;;;;;;;;;;;;15.95;96.30;99289.31;346552;28;859;-84
2023/05/23 00:34:44;;;;;;;;;;;;;;;15.94;96.21;99288.47;346463;28;1171;-84
2023/05/23 00:34:57;;;;;;;;;;;;;;;15.94;96.13;99288.47;346466;28;1242;-84
2023/05/23 00:35:08;;;;;;;;;;;;;;;15.94;96.03;99291.09;343262;28;1303;-85
2023/05/23 00:35:19;;;;;;;;;;;;;;;15.95;96.11;99289.31;342364;28;1397;-85
2023/05/23 00:35:30;;;;;;;;;;;;;;;15.94;96.20;99282.34;344939;28;1359;-85
2023/05/23 00:35:40;;;;;;;;;;;;;;;15.93;96.06;99280.66;338460;28;1403;-85
2023/05/23 00:35:50;;;;;;;;;;;;;;;15.93;96.31;99285.91;339683;28;1391;-85
2023/05/23 00:36:01;;;;;;;;;;;;;;;15.92;96.21;99286.88;343392;28;1233;-85
2023/05/23 00:36:12;;;;;;;;;;;;;;;15.91;96.33;99283.38;341361;28;1556;-85
2023/05/23 00:36:22;;;;;;;;;;;;;;;15.92;96.46;99281.59;341504;28;1345;-85
2023/05/23 00:36:36;;;;;;;;;;;;;;;15.92;96.23;99284.22;338381;29;1318;-85
2023/05/23 00:36:49;;;;;;;;;;;;;;;15.93;96.41;99289.41;338307;29;1246;-85
2023/05/23 00:37:01;;;;;;;;;;;;;;;15.93;96.40;99285.91;340943;29;1388;-85
2023/05/23 00:37:11;;;;;;;;;;;;;;;15.92;96.34;99287.72;339240;29;3290;-85
2023/05/23 00:37:21;;;;;;;;;;;;;;;15.93;96.17;99285.91;336627;29;2708;-86
2023/05/23 00:37:33;;;;;;;;;;;;;;;15.93;96.35;99285.91;334283;29;1197;-85
2023/05/23 00:37:44;;;;;;;;;;;;;;;15.92;96.37;99281.59;328305;30;1274;-85
2023/05/23 00:37:55;;;;;;;;;;;;;;;15.92;96.44;99284.22;329044;29;3151;-85
2023/05/23 00:38:06;;;;;;;;;;;;;;;15.92;96.27;99279.78;327065;30;2091;-85
2023/05/23 00:38:16;;;;;;;;;;;;;;;15.92;96.21;99281.59;325874;30;1374;-85
2023/05/23 00:38:27;;;;;;;;;;;;;;;15.91;96.39;99278.09;326716;29;2271;-84
2023/05/23 00:38:38;;;;;;;;;;;;;;;15.92;96.27;99284.22;325700;30;1679;-84
2023/05/23 00:38:48;;;;;;;;;;;;;;;15.91;96.43;99283.38;327975;30;887;-84
2023/05/23 00:39:01;;;;;;;;;;;;;;;15.90;96.30;99283.50;327526;30;1207;-84
2023/05/23 00:39:17;;;;;;;;;;;;;;;15.92;96.50;99281.59;326039;30;1440;-84
2023/05/23 00:39:28;;;;;;;;;;;;;;;15.86;96.66;99279.38;324706;30;1382;-84
2023/05/23 00:39:38;;;;;;;;;;;;;;;15.84;96.83;99283.91;325470;30;2340;-84
2023/05/23 00:39:48;;;;;;;;;;;;;;;15.84;96.83;99282.09;321523;30;2301;-84
2023/05/23 00:39:59;;;;;;;;;;;;;;;15.86;97.02;99284.66;317676;31;1329;-84
2023/05/23 00:40:09;;;;;;;;;;;;;;;15.85;97.00;99282.94;317908;30;2291;-84
2023/05/23 00:40:20;;;;;;;;;;;;;;;15.85;96.89;99283.78;317426;30;2408;-84
2023/05/23 00:40:30;;;;;;;;;;;;;;;15.85;97.05;99286.44;315358;31;1212;-84
2023/05/23 00:40:40;;;;;;;;;;;;;;;15.85;96.89;99286.44;317270;31;2778;-84
2023/05/23 00:40:51;;;;;;;;;;;;;;;15.86;96.83;99276.72;315976;31;2009;-84
2023/05/23 00:41:01;;;;;;;;;;;;;;;15.86;96.95;99284.66;317638;31;1322;-84
2023/05/23 00:41:11;;;;;;;;;;;;;;;15.86;97.00;99284.66;318159;31;1200;-84
2023/05/23 00:41:21;;;;;;;;;;;;;;;15.86;96.98;99284.66;314209;31;1678;-84
2023/05/23 00:41:32;;;;;;;;;;;;;;;15.86;97.14;99282.00;312849;31;1354;-84
2023/05/23 00:41:42;;;;;;;;;;;;;;;15.85;97.08;99285.59;313633;31;2305;-84
2023/05/23 00:41:52;;;;;;;;;;;;;;;15.81;97.37;99286.75;314088;30;2740;-84
2023/05/23 00:42:03;;;;;;;;;;;;;;;15.80;97.25;99280.63;313061;31;1271;-84
2023/05/23 00:42:13;;;;;;;;;;;;;;;15.80;97.38;99282.41;315322;31;1231;-84
2023/05/23 00:42:23;;;;;;;;;;;;;;;15.80;97.42;99285.91;311740;31;3175;-84
2023/05/23 00:42:33;;;;;;;;;;;;;;;15.81;97.44;99286.75;312789;31;2893;-84
2023/05/23 00:42:44;;;;;;;;;;;;;;;15.80;97.62;99285.91;311970;31;1296;-85
2023/05/23 00:42:55;;;;;;;;;;;;;;;15.81;97.55;99286.75;314953;31;3390;-85
2023/05/23 00:43:07;;;;;;;;;;;;;;;15.80;97.58;99287.69;314418;31;2358;-85
2023/05/23 00:43:18;;;;;;;;;;;;;;;15.81;97.54;99286.75;316512;31;1410;-85
2023/05/23 00:43:28;;;;;;;;;;;;;;;15.79;97.64;99292.13;311735;31;1434;-85
2023/05/23 00:43:38;;;;;;;;;;;;;;;15.79;97.59;99288.63;311643;31;2901;-85
2023/05/23 00:43:48;;;;;;;;;;;;;;;15.80;97.70;99285.06;310372;31;3472;-85
2023/05/23 00:43:59;;;;;;;;;;;;;;;15.79;97.69;99283.38;310547;31;1265;-85
2023/05/23 00:44:09;;;;;;;;;;;;;;;15.78;97.68;99282.53;308932;31;4141;-84
2023/05/23 00:44:20;;;;;;;;;;;;;;;15.80;97.78;99292.97;306244;31;4451;-84
2023/05/23 00:44:30;;;;;;;;;;;;;;;15.80;97.62;99290.34;306530;32;1338;-84
2023/05/23 00:44:40;;;;;;;;;;;;;;;15.80;98.07;99285.06;303793;32;4352;-84
2023/05/23 00:44:51;;;;;;;;;;;;;;;15.81;97.79;99287.59;304281;32;3407;-84
2023/05/23 00:45:01;;;;;;;;;;;;;;;15.81;97.74;99282.31;305586;32;1350;-84
2023/05/23 00:45:11;;;;;;;;;;;;;;;15.82;97.82;99285.78;304804;32;3848;-84
2023/05/23 00:45:22;;;;;;;;;;;;;;;15.82;97.85;99285.78;302661;32;3160;-84
2023/05/23 00:45:32;;;;;;;;;;;;;;;15.82;97.89;99288.44;301392;32;845;-85
2023/05/23 00:45:42;;;;;;;;;;;;;;;15.81;97.77;99284.09;300553;32;2779;-85
2023/05/23 00:45:53;;;;;;;;;;;;;;;15.83;97.57;99284.84;296690;33;4020;-84
2023/05/23 00:46:03;;;;;;;;;;;;;;;15.83;97.79;99282.22;294001;32;5665;-84
2023/05/23 00:46:13;;;;;;;;;;;;;;;15.83;97.69;99284.84;293316;33;2010;-84
2023/05/23 00:46:23;;;;;;;;;;;;;;;15.84;97.64;99278.63;289827;33;6642;-84
2023/05/23 00:46:33;;;;;;;;;;;;;;;15.80;97.89;99277.97;285409;34;6774;-84
2023/05/23 00:46:44;;;;;;;;;;;;;;;15.82;97.74;99286.63;286573;34;2882;-84
2023/05/23 00:46:55;;;;;;;;;;;;;;;15.82;98.01;99284.00;288508;33;6257;-84
2023/05/23 00:47:05;;;;;;;;;;;;;;;15.83;97.71;99285.69;285546;34;6189;-84
2023/05/23 00:47:16;;;;;;;;;;;;;;;15.83;97.95;99284.84;284894;34;1550;-85
2023/05/23 00:47:26;;;;;;;;;;;;;;;15.82;98.01;99288.44;285066;34;5182;-84
2023/05/23 00:47:37;;;;;;;;;;;;;;;15.83;98.01;99284.84;283280;34;4575;-84
2023/05/23 00:47:47;;;;;;;;;;;;;;;15.82;98.08;99281.38;280591;35;1470;-84
2023/05/23 00:47:58;;;;;;;;;;;;;;;15.82;97.96;99285.78;277369;34;4524;-84
2023/05/23 00:48:10;;;;;;;;;;;;;;;15.81;98.11;99284.09;275749;35;6146;-84
2023/05/23 00:48:20;;;;;;;;;;;;;;;15.80;98.10;99290.34;273921;35;8147;-84
2023/05/23 00:48:31;;;;;;;;;;;;;;;15.80;98.16;99290.34;274090;36;1315;-84
2023/05/23 00:48:41;;;;;;;;;;;;;;;15.80;98.13;99285.91;272338;35;9772;-84
2023/05/23 00:48:52;;;;;;;;;;;;;;;15.81;98.14;99286.75;272115;35;10470;-84
2023/05/23 00:49:02;;;;;;;;;;;;;;;15.81;98.15;99294.66;273297;36;1313;-84
2023/05/23 00:50:41;;;;;;;;;;;;;;;15.81;98.60;99297.31;2464510;27;19946;-84
2023/05/23 00:50:52;;;;;;;;;;;;;;;15.80;98.52;99290.34;349085;28;1364;-84
2023/05/23 00:51:02;;;;;;;;;;;;;;;15.80;98.66;99287.69;346370;28;1188;-84
2023/05/23 00:51:12;;;;;;;;;;;;;;;15.79;98.45;99294.75;346388;28;1378;-84
2023/05/23 00:51:22;;;;;;;;;;;;;;;15.79;98.55;99294.75;345528;28;1492;-84
2023/05/23 00:51:33;;;;;;;;;;;;;;;15.80;98.54;99296.47;343777;28;865;-84
2023/05/23 00:51:43;;;;;;;;;;;;;;;15.77;98.54;99290.53;342320;28;1198;-84
2023/05/23 00:51:53;;;;;;;;;;;;;;;15.79;98.34;99293.91;343715;28;1312;-84
2023/05/23 00:52:04;;;;;;;;;;;;;;;15.79;98.46;99291.28;345718;28;1410;-84
2023/05/23 00:52:14;;;;;;;;;;;;;;;15.80;98.33;99295.59;343763;28;1298;-84
2023/05/23 00:52:24;;;;;;;;;;;;;;;15.76;98.34;99294.97;343499;28;1265;-84
2023/05/23 00:52:34;;;;;;;;;;;;;;;15.78;98.37;99287.78;346292;28;1423;-84
2023/05/23 00:52:45;;;;;;;;;;;;;;;15.78;98.47;99302.78;346454;28;1228;-84
2023/05/23 00:52:56;;;;;;;;;;;;;;;15.76;98.56;99292.34;346291;28;1253;-84
2023/05/23 00:53:06;;;;;;;;;;;;;;;15.77;98.80;99303.72;343603;28;1313;-84
2023/05/23 00:53:16;;;;;;;;;;;;;;;15.77;98.46;99301.09;343692;28;1193;-84
2023/05/23 00:53:26;;;;;;;;;;;;;;;15.76;98.78;99302.88;343556;28;1227;-84
2023/05/23 00:53:37;;;;;;;;;;;;;;;15.77;98.73;99295.81;344955;28;1394;-84
2023/05/23 00:53:47;;;;;;;;;;;;;;;15.77;98.76;99306.38;343755;28;1269;-84
2023/05/23 00:54:00;;;;;;;;;;;;;;;15.77;98.71;99295.81;345117;28;1321;-84
2023/05/23 00:54:10;;;;;;;;;;;;;;;15.78;98.53;99297.50;346321;28;1257;-84
2023/05/23 00:54:26;;;;;;;;;;;;;;;15.78;98.53;99297.50;346232;28;1232;-84
2023/05/23 00:54:36;;;;;;;;;;;;;;;15.79;98.51;99293.91;343283;28;1280;-84
2023/05/23 00:54:46;;;;;;;;;;;;;;;15.78;98.52;99292.22;344444;28;1208;-84
2023/05/23 00:54:56;;;;;;;;;;;;;;;15.79;98.53;99296.56;342500;28;1210;-84
2023/05/23 00:55:07;;;;;;;;;;;;;;;15.78;98.64;99294.88;341610;28;1337;-84
2023/05/23 00:55:17;;;;;;;;;;;;;;;15.78;98.54;99290.44;343531;28;1331;-85
2023/05/23 00:55:27;;;;;;;;;;;;;;;15.78;98.43;99297.50;341567;28;1256;-84
2023/05/23 00:55:38;;;;;;;;;;;;;;;15.78;98.56;99292.22;341044;29;1405;-84
2023/05/23 00:55:48;;;;;;;;;;;;;;;15.77;98.42;99294.03;338511;29;3385;-84
2023/05/23 00:55:58;;;;;;;;;;;;;;;15.78;98.28;99294.88;339436;29;2774;-84
2023/05/23 00:56:08;;;;;;;;;;;;;;;15.78;98.37;99285.16;341615;28;3099;-84
2023/05/23 00:56:19;;;;;;;;;;;;;;;15.78;98.16;99285.16;340926;29;1108;-84
2023/05/23 00:56:30;;;;;;;;;;;;;;;15.78;98.26;99289.59;341114;29;877;-84
2023/05/23 00:56:42;;;;;;;;;;;;;;;15.77;98.21;99301.09;339758;29;1373;-83
2023/05/23 00:56:53;;;;;;;;;;;;;;;15.77;98.29;99294.03;339786;29;1253;-84
2023/05/23 00:57:03;;;;;;;;;;;;;;;15.77;98.41;99282.63;338746;29;1261;-83
2023/05/23 00:57:13;;;;;;;;;;;;;;;15.77;98.30;99285.25;339856;29;1219;-83
2023/05/23 00:57:24;;;;;;;;;;;;;;;15.73;98.31;99289.06;338628;29;1162;-84
2023/05/23 00:57:34;;;;;;;;;;;;;;;15.70;98.40;99289.25;339453;29;1087;-83
2023/05/23 00:57:44;;;;;;;;;;;;;;;15.71;98.49;99285.66;338440;29;950;-83
2023/05/23 00:57:56;;;;;;;;;;;;;;;15.71;98.63;99283.03;339681;29;1317;-83
2023/05/23 00:58:06;;;;;;;;;;;;;;;15.71;98.50;99291.78;338321;29;1332;-83
2023/05/23 00:58:16;;;;;;;;;;;;;;;15.72;98.53;99287.34;335741;29;1372;-83
2023/05/23 00:58:26;;;;;;;;;;;;;;;15.71;98.53;99290.94;339568;29;1330;-83
2023/05/23 00:58:37;;;;;;;;;;;;;;;15.73;98.33;99286.41;340014;28;1230;-83
2023/05/23 00:58:47;;;;;;;;;;;;;;;15.74;98.59;99288.09;342256;28;1454;-83
2023/05/23 00:58:59;;;;;;;;;;;;;;;15.76;98.35;99288.84;338435;29;1154;-83
2023/05/23 00:59:09;;;;;;;;;;;;;;;15.76;98.35;99283.56;335993;29;1306;-83
2023/05/23 00:59:20;;;;;;;;;;;;;;;15.75;98.32;99282.72;334035;29;1398;-83
2023/05/23 00:59:30;;;;;;;;;;;;;;;15.72;98.52;99277.66;334553;29;1978;-83
2023/05/23 00:59:40;;;;;;;;;;;;;;;15.75;98.13;99287.16;337760;29;1307;-83
2023/05/23 00:59:51;;;;;;;;;;;;;;;15.77;98.35;99290.53;334516;29;1385;-83
2023/05/23 01:00:02;;;;;;;;;;;;;;;15.77;98.49;99285.25;334017;29;1207;-83
2023/05/23 01:00:13;;;;;;;;;;;;;;;15.76;98.52;99284.41;334714;29;851;-83
2023/05/23 01:00:23;;;;;;;;;;;;;;;15.76;98.36;99279.13;335338;29;1376;-83
2023/05/23 01:00:34;;;;;;;;;;;;;;;15.77;98.42;99279.97;334466;29;1419;-83
2023/05/23 01:00:45;;;;;;;;;;;;;;;15.77;98.45;99290.53;331998;29;1344;-83
2023/05/23 01:00:55;;;;;;;;;;;;;;;15.77;98.27;99285.25;331223;29;1881;-83
2023/05/23 01:01:05;;;;;;;;;;;;;;;15.78;98.24;99286.94;329721;29;1844;-83
2023/05/23 01:01:16;;;;;;;;;;;;;;;15.77;98.28;99282.63;328183;30;1450;-83
2023/05/23 01:01:26;;;;;;;;;;;;;;;15.76;98.40;99279.13;330331;29;1948;-83
2023/05/23 01:01:36;;;;;;;;;;;;;;;15.76;98.70;99283.56;332362;29;1986;-83
2023/05/23 01:01:47;;;;;;;;;;;;;;;15.78;98.53;99281.66;332247;29;1347;-83
2023/05/23 01:01:57;;;;;;;;;;;;;;;15.76;98.40;99273.00;329486;30;819;-83
2023/05/23 01:02:07;;;;;;;;;;;;;;;15.78;98.42;99276.41;330214;29;1017;-83
2023/05/23 01:02:20;;;;;;;;;;;;;;;15.79;98.54;99278.09;329816;29;1269;-83
2023/05/23 01:02:31;;;;;;;;;;;;;;;15.80;98.32;99285.06;328674;30;1262;-83
2023/05/23 01:02:44;;;;;;;;;;;;;;;15.81;98.30;99281.47;327232;30;2119;-84
2023/05/23 01:02:55;;;;;;;;;;;;;;;15.81;98.27;99282.31;321948;30;2218;-84
2023/05/23 01:03:05;;;;;;;;;;;;;;;15.81;98.27;99281.47;320503;30;2352;-83
2023/05/23 01:03:16;;;;;;;;;;;;;;;15.81;98.27;99281.47;318555;30;2428;-83
2023/05/23 01:03:27;;;;;;;;;;;;;;;15.81;98.34;99281.47;318527;30;2003;-83
2023/05/23 01:03:37;;;;;;;;;;;;;;;15.81;98.27;99286.75;316273;31;2210;-83
2023/05/23 01:03:48;;;;;;;;;;;;;;;15.81;98.38;99286.75;316605;31;2441;-83
2023/05/23 01:03:59;;;;;;;;;;;;;;;15.79;98.22;99278.94;316365;31;1447;-83
2023/05/23 01:04:10;;;;;;;;;;;;;;;15.79;98.46;99281.56;317221;31;1769;-83